Portada
METAR-TAF:

METAR-TAF

Aeroports :

Valladolid, Espanya

latitud: 41-43N, longitud: 004-51W, altitud: 849 m

Observació

L'informe es va fer fa 15 minuts, a les 02:00 UTC
Vent 3 kt del Nord-Est
Temperatura 3°C
Humitat 81%
Pressió 1034 hPa
Visibilitat 10 km o més
sense núvols per sota de 1500 mi sense presència de cumulonimbus.

METAR: LEVD 230200Z AUTO 05003KT CAVOK 03/00 Q1034

Hora: 03:15 (02:15 UTC)

Pronòstic

L'informe es va fer fa 3 hores i 15 minuts, a les 23:00 UTC
Pronòstic vàlid del 23 a les 00 UTC al 23 a les 24 UTC
Vent 4 kt amb direcció variable
Visibilitat 10 km o més
sense núvols per sota de 1500 mi sense presència de cumulonimbus.

TAF: LEVD 222300Z 2300/2324 VRB04KT CAVOK TX18/2316Z TNM01/2307Z

Observacions i pronòstics meteorològics de més de 4000 aeroports (METAR i TAF).

Les estacions disponibles són els punts grocs i vermells al mapa.

Posi el ratolí al punt desitjat per veure el nom de l'estació.

Feu clic per veure les observacions i els pronòstics meteorològics.

Per canviar el mapa: feu clic els botons verds amb una creu de color negre per apropar; al botó verd amb un guió per allunyar la imatge; o en les fletxes verdes per a mapes adjacents.


METAR-TAF: